createdAt,value
2018-02-25T00:00:53.391Z,-0.50
2018-02-25T00:03:22.502Z,-0.40
2018-02-25T00:05:50.131Z,-0.30
2018-02-25T00:08:17.973Z,-0.20
2018-02-25T00:10:46.383Z,-0.20
2018-02-25T00:13:14.144Z,-0.30
2018-02-25T00:15:41.864Z,-0.30
2018-02-25T00:18:09.508Z,-0.10
2018-02-25T00:20:43.230Z,0.00
2018-02-25T00:23:11.330Z,-0.50
2018-02-25T00:25:38.999Z,-0.90
2018-02-25T00:28:06.597Z,-0.70
2018-02-25T00:30:34.288Z,-0.70
2018-02-25T00:33:01.932Z,-0.40
2018-02-25T00:35:29.576Z,-0.30
2018-02-25T00:37:57.237Z,-0.80
2018-02-25T00:40:24.852Z,-0.70
2018-02-25T00:42:52.833Z,-0.50
2018-02-25T00:45:21.181Z,-0.70
2018-02-25T00:47:49.379Z,-0.70
2018-02-25T00:50:17.216Z,-0.70
2018-02-25T00:52:45.211Z,-0.80
2018-02-25T00:55:13.224Z,-0.60
2018-02-25T00:57:40.875Z,-0.80
2018-02-25T01:00:08.717Z,-1.00
2018-02-25T01:02:36.454Z,-0.90
2018-02-25T01:05:04.052Z,-0.80
2018-02-25T01:07:31.741Z,-1.00
2018-02-25T01:09:59.343Z,-1.00
2018-02-25T01:12:26.905Z,-1.00
2018-02-25T01:14:54.781Z,-0.90
2018-02-25T01:17:22.466Z,-0.90
2018-02-25T01:19:50.116Z,-0.80
2018-02-25T01:22:18.452Z,-1.10
2018-02-25T01:24:46.043Z,-1.00
2018-02-25T01:27:13.615Z,-1.00
2018-02-25T01:29:42.038Z,-1.60
2018-02-25T01:32:09.701Z,-1.70
2018-02-25T01:34:37.528Z,-1.70
2018-02-25T01:37:05.856Z,-1.20
2018-02-25T01:39:33.503Z,-1.10
2018-02-25T01:42:01.148Z,-1.30
2018-02-25T01:44:29.792Z,-1.20
2018-02-25T01:46:57.472Z,-1.20
2018-02-25T01:49:25.089Z,-1.60
2018-02-25T01:51:52.711Z,-1.60
2018-02-25T01:54:20.312Z,-1.50
2018-02-25T01:56:48.272Z,-1.30
2018-02-25T01:59:15.885Z,-1.70
2018-02-25T02:01:44.227Z,-2.00
2018-02-25T02:04:11.816Z,-1.90
2018-02-25T02:06:39.437Z,-1.70
2018-02-25T02:09:09.053Z,-1.50
2018-02-25T02:11:36.835Z,-1.50
2018-02-25T02:14:05.526Z,-1.20
2018-02-25T02:16:33.512Z,-1.10
2018-02-25T02:19:02.324Z,-1.10
2018-02-25T02:21:29.902Z,-1.20
2018-02-25T02:23:58.313Z,-1.30
2018-02-25T02:26:25.892Z,-1.50
2018-02-25T02:28:53.538Z,-1.50
2018-02-25T02:31:21.136Z,-1.50
2018-02-25T02:33:48.760Z,-1.40
2018-02-25T02:36:16.362Z,-1.40
2018-02-25T02:38:44.357Z,-1.30
2018-02-25T02:41:11.969Z,-1.40
2018-02-25T02:43:39.537Z,-1.30
2018-02-25T02:46:07.149Z,-1.20
2018-02-25T02:48:34.743Z,-1.10
2018-02-25T02:51:03.929Z,-1.00
2018-02-25T02:53:31.535Z,-1.10
2018-02-25T02:55:59.197Z,-1.10
2018-02-25T02:58:26.781Z,-1.40
2018-02-25T03:00:54.388Z,-1.50
2018-02-25T03:03:21.948Z,-1.50
2018-02-25T03:05:51.160Z,-1.60
2018-02-25T03:08:18.753Z,-1.70
2018-02-25T03:10:46.356Z,-1.60
2018-02-25T03:13:13.958Z,-1.50
2018-02-25T03:15:42.308Z,-1.50
2018-02-25T03:18:09.904Z,-1.60
2018-02-25T03:20:37.552Z,-1.50
2018-02-25T03:23:05.921Z,-1.30
2018-02-25T03:25:33.515Z,-1.40
2018-02-25T03:28:01.124Z,-1.50
2018-02-25T03:30:28.740Z,-1.70
2018-02-25T03:32:56.323Z,-1.60
2018-02-25T03:35:23.933Z,-2.10
2018-02-25T03:37:52.325Z,-2.10
2018-02-25T03:40:19.962Z,-2.00
2018-02-25T03:42:49.314Z,-1.80
2018-02-25T03:45:16.944Z,-1.80
2018-02-25T03:47:45.306Z,-1.70
2018-02-25T03:50:13.698Z,-1.60
2018-02-25T03:52:41.319Z,-1.70
2018-02-25T03:55:08.912Z,-1.60
2018-02-25T03:57:36.989Z,-1.70
2018-02-25T04:00:04.596Z,-1.60
2018-02-25T04:02:32.197Z,-1.80
2018-02-25T04:05:00.587Z,-1.80
2018-02-25T04:07:28.952Z,-1.80
2018-02-25T04:09:57.323Z,-1.80
2018-02-25T04:12:24.886Z,-1.70
2018-02-25T04:14:53.301Z,-1.70
2018-02-25T04:17:20.891Z,-1.60
2018-02-25T04:19:48.484Z,-1.70
2018-02-25T04:22:16.489Z,-2.00
2018-02-25T04:24:45.544Z,-2.10
2018-02-25T04:27:13.356Z,-1.90
2018-02-25T04:29:40.982Z,-1.90
2018-02-25T04:32:09.345Z,-2.30
2018-02-25T04:34:36.932Z,-2.30
2018-02-25T04:37:04.536Z,-2.20
2018-02-25T04:39:32.133Z,-2.20
2018-02-25T04:41:59.807Z,-2.50
2018-02-25T04:44:27.479Z,-2.70
2018-02-25T04:46:55.087Z,-2.90
2018-02-25T04:49:22.684Z,-2.80
2018-02-25T04:51:50.316Z,-2.60
2018-02-25T04:54:17.935Z,-2.30
2018-02-25T04:56:46.329Z,-2.40
2018-02-25T04:59:14.680Z,-2.30
2018-02-25T05:01:42.290Z,-2.30
2018-02-25T05:04:09.989Z,-2.20
2018-02-25T05:06:39.210Z,-2.20
2018-02-25T05:09:06.865Z,-2.10
2018-02-25T05:11:34.486Z,-2.20
2018-02-25T05:14:02.072Z,-2.40
2018-02-25T05:16:29.668Z,-2.40
2018-02-25T05:18:58.010Z,-2.30
2018-02-25T05:21:25.627Z,-2.30
2018-02-25T05:23:53.324Z,-3.00
2018-02-25T05:26:20.931Z,-2.90
2018-02-25T05:28:49.284Z,-3.00
2018-02-25T05:31:16.911Z,-2.80
2018-02-25T05:33:44.499Z,-2.80
2018-02-25T05:36:12.122Z,-2.60
2018-02-25T05:38:39.704Z,-2.50
2018-02-25T05:41:07.304Z,-2.40
2018-02-25T05:43:34.896Z,-2.30
2018-02-25T05:46:02.527Z,-2.30
2018-02-25T05:48:30.153Z,-2.30
2018-02-25T05:50:57.806Z,-2.40
2018-02-25T05:53:25.389Z,-2.70
2018-02-25T05:55:52.990Z,-2.70
2018-02-25T05:58:21.357Z,-2.60
2018-02-25T06:00:49.727Z,-2.50
2018-02-25T06:03:17.304Z,-2.40
2018-02-25T06:05:44.959Z,-2.40
2018-02-25T06:08:13.341Z,-3.30
2018-02-25T06:10:41.792Z,-3.10
2018-02-25T06:13:09.368Z,-3.10
2018-02-25T06:15:37.977Z,-3.00
2018-02-25T06:18:05.576Z,-3.00
2018-02-25T06:20:33.168Z,-2.90
2018-02-25T06:23:01.538Z,-2.70
2018-02-25T06:25:29.151Z,-2.80
2018-02-25T06:27:56.812Z,-3.10
2018-02-25T06:30:24.394Z,-2.90
2018-02-25T06:32:52.160Z,-3.00
2018-02-25T06:35:19.753Z,-3.00
2018-02-25T06:37:48.844Z,-2.80
2018-02-25T06:40:16.512Z,-2.70
2018-02-25T06:42:44.891Z,-3.00
2018-02-25T06:45:14.011Z,-2.90
2018-02-25T06:47:41.616Z,-3.00
2018-02-25T06:50:09.210Z,-3.10
2018-02-25T06:52:37.596Z,-3.10
2018-02-25T06:55:05.945Z,-3.20
2018-02-25T06:57:33.585Z,-3.10
2018-02-25T07:00:01.181Z,-3.10
2018-02-25T07:02:29.534Z,-2.70
2018-02-25T07:04:57.139Z,-2.60
2018-02-25T07:07:24.833Z,-2.60
2018-02-25T07:09:52.970Z,-2.60
2018-02-25T07:12:20.581Z,-3.00
2018-02-25T07:14:48.162Z,-3.00
2018-02-25T07:17:16.618Z,-2.90
2018-02-25T07:19:44.197Z,-2.90
2018-02-25T07:22:11.875Z,-2.80
2018-02-25T07:24:39.480Z,-2.70
2018-02-25T07:27:07.076Z,-2.70
2018-02-25T07:29:34.658Z,-2.60
2018-02-25T07:32:02.252Z,-2.60
2018-02-25T07:34:29.991Z,-2.10
2018-02-25T07:36:57.923Z,-2.10
2018-02-25T07:39:25.505Z,-2.40
2018-02-25T07:41:53.984Z,-3.00
2018-02-25T07:44:21.656Z,-3.00
2018-02-25T07:46:49.264Z,-2.90
2018-02-25T07:49:17.573Z,-2.70
2018-02-25T07:51:45.510Z,-2.40
2018-02-25T07:54:14.158Z,-2.70
2018-02-25T07:56:51.886Z,-3.10
2018-02-25T07:59:19.761Z,-3.00
2018-02-25T08:01:47.336Z,-2.80
2018-02-25T08:04:14.940Z,-2.90
2018-02-25T08:06:42.548Z,-2.70
2018-02-25T08:09:12.366Z,-2.50
2018-02-25T08:11:41.436Z,-2.20
2018-02-25T08:14:09.043Z,-2.30
2018-02-25T08:16:36.628Z,-2.50
2018-02-25T08:19:04.209Z,-3.10
2018-02-25T08:21:31.788Z,-3.00
2018-02-25T08:23:59.407Z,-2.60
2018-02-25T08:26:27.743Z,-2.30
2018-02-25T08:28:55.535Z,-2.40
2018-02-25T08:31:23.252Z,-2.60
2018-02-25T08:33:50.929Z,-2.70
2018-02-25T08:36:19.335Z,-2.00
2018-02-25T08:38:47.304Z,-1.60
2018-02-25T08:41:14.883Z,-1.50
2018-02-25T08:43:42.686Z,-1.80
2018-02-25T08:46:10.272Z,-1.70
2018-02-25T08:48:38.710Z,-1.80
2018-02-25T08:51:06.640Z,-2.00
2018-02-25T08:53:34.392Z,-2.30
2018-02-25T08:56:02.044Z,-2.00
2018-02-25T08:58:29.843Z,-1.70
2018-02-25T09:00:57.449Z,-1.70
2018-02-25T09:03:25.042Z,-1.70
2018-02-25T09:05:52.727Z,-1.70
2018-02-25T09:08:20.321Z,-1.50
2018-02-25T09:10:49.695Z,-1.40
2018-02-25T09:13:17.329Z,-1.60
2018-02-25T09:15:45.663Z,-1.20
2018-02-25T09:18:13.316Z,-1.20
2018-02-25T09:20:40.867Z,-1.10
2018-02-25T09:23:08.801Z,-1.00
2018-02-25T09:25:36.410Z,-1.60
2018-02-25T09:28:04.023Z,-1.70
2018-02-25T09:30:31.637Z,-1.70
2018-02-25T09:33:00.534Z,-1.20
2018-02-25T09:35:28.306Z,-1.00
2018-02-25T09:37:55.955Z,-0.90
2018-02-25T09:40:23.655Z,-1.00
2018-02-25T09:42:52.000Z,-1.00
2018-02-25T09:45:19.675Z,-1.20
2018-02-25T09:47:48.122Z,-1.20
2018-02-25T09:50:16.156Z,-1.10
2018-02-25T09:52:43.982Z,-1.10
2018-02-25T09:55:12.813Z,-0.70
2018-02-25T09:57:41.149Z,-0.40
2018-02-25T10:00:10.029Z,-0.60
2018-02-25T10:02:39.275Z,-0.60
2018-02-25T10:05:08.007Z,-0.40
2018-02-25T10:07:35.615Z,0.20
2018-02-25T10:10:04.485Z,0.20
2018-02-25T10:12:32.521Z,0.20
2018-02-25T10:15:00.748Z,0.20
2018-02-25T10:17:29.943Z,0.20
2018-02-25T10:19:57.571Z,0.30
2018-02-25T10:22:25.421Z,0.30
2018-02-25T10:24:53.422Z,0.30
2018-02-25T10:27:21.270Z,0.60
2018-02-25T10:29:49.068Z,0.60
2018-02-25T10:32:16.718Z,0.50
2018-02-25T10:34:44.332Z,0.60
2018-02-25T10:37:13.556Z,0.60
2018-02-25T10:39:41.150Z,0.90
2018-02-25T10:42:08.808Z,1.10
2018-02-25T10:44:36.425Z,1.30
2018-02-25T10:47:04.117Z,1.40
2018-02-25T10:49:35.893Z,1.50
2018-02-25T10:52:05.506Z,1.60
2018-02-25T10:54:34.392Z,1.60
2018-02-25T10:57:02.263Z,1.60
2018-02-25T10:59:29.876Z,2.10
2018-02-25T11:01:57.529Z,2.20
2018-02-25T11:04:25.185Z,2.10
2018-02-25T11:06:53.586Z,2.00
2018-02-25T11:09:21.217Z,2.00
2018-02-25T11:11:49.246Z,2.40
2018-02-25T11:14:16.844Z,3.10
2018-02-25T11:16:44.427Z,3.10
2018-02-25T11:19:12.056Z,3.30
2018-02-25T11:21:40.404Z,3.40
2018-02-25T11:24:08.075Z,3.40
2018-02-25T11:26:36.207Z,3.90
2018-02-25T11:29:03.810Z,3.90
2018-02-25T11:31:31.483Z,4.00
2018-02-25T11:33:59.146Z,4.00
2018-02-25T11:36:27.812Z,4.00
2018-02-25T11:38:55.921Z,4.00
2018-02-25T11:41:23.653Z,4.10
2018-02-25T11:43:51.251Z,4.40
2018-02-25T11:46:18.845Z,4.20
2018-02-25T11:48:46.460Z,4.20
2018-02-25T11:51:14.087Z,3.60
2018-02-25T11:53:41.654Z,3.60
2018-02-25T11:56:09.237Z,4.10
2018-02-25T11:58:36.811Z,4.50
2018-02-25T12:01:04.444Z,4.90
2018-02-25T12:03:32.293Z,5.20
2018-02-25T12:06:00.171Z,5.80
2018-02-25T12:08:27.942Z,6.10
2018-02-25T12:10:55.618Z,6.30
2018-02-25T12:13:23.436Z,6.40
2018-02-25T12:15:52.162Z,7.40
2018-02-25T12:18:19.843Z,7.30
2018-02-25T12:20:47.451Z,7.40
2018-02-25T12:23:15.051Z,7.50
2018-02-25T12:25:43.400Z,7.60
2018-02-25T12:28:11.852Z,7.70
2018-02-25T12:30:40.289Z,8.20
2018-02-25T12:33:07.854Z,8.20
2018-02-25T12:35:35.513Z,7.30
2018-02-25T12:38:03.847Z,7.60
2018-02-25T12:40:31.451Z,7.60
2018-02-25T12:42:59.043Z,8.00
2018-02-25T12:45:26.620Z,8.00
2018-02-25T12:47:54.456Z,9.10
2018-02-25T12:50:22.237Z,9.20
2018-02-25T12:52:50.516Z,9.10
2018-02-25T12:55:18.931Z,9.30
2018-02-25T12:57:46.552Z,9.60
2018-02-25T13:00:14.526Z,9.60
2018-02-25T13:02:43.071Z,10.30
2018-02-25T13:05:11.537Z,10.50
2018-02-25T13:07:39.272Z,10.40
2018-02-25T13:10:06.984Z,9.60
2018-02-25T13:12:34.653Z,9.60
2018-02-25T13:15:02.240Z,9.90
2018-02-25T13:17:29.844Z,9.90
2018-02-25T13:19:57.978Z,10.30
2018-02-25T13:22:25.664Z,10.50
2018-02-25T13:24:53.484Z,10.60
2018-02-25T13:27:21.938Z,10.90
2018-02-25T13:29:49.603Z,11.10
2018-02-25T13:32:17.468Z,10.60
2018-02-25T13:34:45.821Z,10.50
2018-02-25T13:37:13.424Z,10.80
2018-02-25T13:39:41.004Z,10.70
2018-02-25T13:42:08.586Z,11.10
2018-02-25T13:44:36.561Z,11.30
2018-02-25T13:47:04.202Z,11.30
2018-02-25T13:49:31.807Z,11.60
2018-02-25T13:51:59.559Z,10.80
2018-02-25T13:54:27.190Z,10.90
2018-02-25T13:56:54.857Z,10.00
2018-02-25T13:59:22.437Z,10.60
2018-02-25T14:01:50.094Z,10.50
2018-02-25T14:04:18.463Z,10.80
2018-02-25T14:06:47.039Z,11.10
2018-02-25T14:09:14.934Z,10.90
2018-02-25T14:11:42.594Z,11.00
2018-02-25T14:14:10.192Z,12.10
2018-02-25T14:16:37.795Z,12.10
2018-02-25T14:19:05.385Z,11.70
2018-02-25T14:21:33.009Z,11.30
2018-02-25T14:24:00.967Z,11.40
2018-02-25T14:26:29.503Z,12.20
2018-02-25T14:28:57.083Z,12.20
2018-02-25T14:31:24.749Z,12.70
2018-02-25T14:33:52.908Z,12.50
2018-02-25T14:36:20.516Z,11.20
2018-02-25T14:38:49.937Z,11.20
2018-02-25T14:41:17.687Z,11.20
2018-02-25T14:43:46.313Z,10.70
2018-02-25T14:46:13.909Z,10.70
2018-02-25T14:48:41.477Z,11.40
2018-02-25T14:51:09.077Z,11.10
2018-02-25T14:53:36.922Z,10.70
2018-02-25T14:56:08.493Z,11.30
2018-02-25T14:58:36.831Z,11.40
2018-02-25T15:01:04.965Z,11.40
2018-02-25T15:03:32.669Z,12.30
2018-02-25T15:06:01.372Z,12.90
2018-02-25T15:10:58.765Z,12.10
2018-02-25T15:13:26.447Z,10.50
2018-02-25T15:15:54.399Z,10.50
2018-02-25T15:18:22.219Z,10.90
2018-02-25T15:20:49.917Z,11.50
2018-02-25T15:23:19.086Z,11.00
2018-02-25T15:25:47.444Z,9.70
2018-02-25T15:28:15.370Z,9.70
2018-02-25T15:30:43.713Z,9.60
2018-02-25T15:33:11.832Z,9.60
2018-02-25T15:35:39.433Z,9.80
2018-02-25T15:38:07.192Z,10.60
2018-02-25T15:40:35.965Z,11.50
2018-02-25T15:43:03.561Z,12.30
2018-02-25T15:45:31.416Z,12.70
2018-02-25T15:47:59.101Z,13.00
2018-02-25T15:50:26.680Z,12.40
2018-02-25T15:52:55.508Z,12.20
2018-02-25T15:55:23.478Z,11.70
2018-02-25T15:57:51.136Z,11.50
2018-02-25T16:00:18.710Z,9.80
2018-02-25T16:02:46.353Z,9.50
2018-02-25T16:05:13.923Z,9.10
2018-02-25T16:07:41.517Z,8.70
2018-02-25T16:10:09.144Z,9.20
2018-02-25T16:12:37.881Z,9.60
2018-02-25T16:15:05.465Z,9.50
2018-02-25T16:17:37.469Z,8.70
2018-02-25T16:20:05.071Z,8.40
2018-02-25T16:22:33.210Z,7.60
2018-02-25T16:25:00.807Z,7.20
2018-02-25T16:27:28.430Z,7.20
2018-02-25T16:29:56.043Z,7.20
2018-02-25T16:32:23.768Z,6.90
2018-02-25T16:34:51.465Z,6.40
2018-02-25T16:37:19.486Z,6.10
2018-02-25T16:39:47.150Z,6.00
2018-02-25T16:42:15.173Z,5.90
2018-02-25T16:44:44.784Z,5.50
2018-02-25T16:47:14.008Z,5.20
2018-02-25T16:49:41.597Z,5.00
2018-02-25T16:52:09.180Z,4.30
2018-02-25T16:54:36.838Z,3.80
2018-02-25T16:57:04.430Z,3.60
2018-02-25T16:59:32.242Z,3.40
2018-02-25T17:01:59.883Z,3.10
2018-02-25T17:04:27.608Z,3.10
2018-02-25T17:06:55.208Z,3.10
2018-02-25T17:09:22.801Z,3.10
2018-02-25T17:11:51.147Z,3.20
2018-02-25T17:14:18.971Z,3.00
2018-02-25T17:16:47.704Z,2.90
2018-02-25T17:19:15.294Z,2.60
2018-02-25T17:21:43.663Z,2.60
2018-02-25T17:24:11.292Z,2.60
2018-02-25T17:26:39.289Z,2.40
2018-02-25T17:29:18.667Z,2.20
2018-02-25T17:31:47.808Z,2.10
2018-02-25T17:34:15.437Z,1.90
2018-02-25T17:36:44.248Z,1.70
2018-02-25T17:39:11.901Z,1.80
2018-02-25T17:41:39.460Z,1.90
2018-02-25T17:44:07.052Z,2.00
2018-02-25T17:46:35.851Z,2.00
2018-02-25T17:49:08.219Z,3.00
2018-02-25T17:51:42.802Z,3.90
2018-02-25T17:54:19.212Z,3.60
2018-02-25T17:56:55.539Z,3.00
2018-02-25T17:59:34.865Z,2.70
2018-02-25T18:02:03.504Z,2.50
2018-02-25T18:04:38.814Z,2.30
2018-02-25T18:07:07.209Z,2.30
2018-02-25T18:09:37.265Z,2.20
2018-02-25T18:12:05.288Z,2.10
2018-02-25T18:14:32.883Z,1.90
2018-02-25T18:17:01.216Z,1.90
2018-02-25T18:19:28.807Z,1.80
2018-02-25T18:21:57.190Z,1.80
2018-02-25T18:24:25.566Z,1.70
2018-02-25T18:26:53.992Z,1.70
2018-02-25T18:29:21.673Z,1.60
2018-02-25T18:31:50.021Z,1.50
2018-02-25T18:34:18.390Z,1.50
2018-02-25T18:36:46.358Z,1.50
2018-02-25T18:39:14.390Z,1.40
2018-02-25T18:41:42.113Z,1.30
2018-02-25T18:44:09.745Z,1.20
2018-02-25T18:46:37.438Z,1.00
2018-02-25T18:49:05.940Z,1.90
2018-02-25T18:51:33.605Z,1.00
2018-02-25T18:54:01.226Z,1.00
2018-02-25T18:56:28.862Z,1.10
2018-02-25T18:58:57.211Z,0.90
2018-02-25T19:01:24.812Z,0.80
2018-02-25T19:03:52.403Z,0.60
2018-02-25T19:06:19.995Z,0.50
2018-02-25T19:08:58.674Z,0.50
2018-02-25T19:11:26.517Z,0.60
2018-02-25T19:13:54.167Z,0.60
2018-02-25T19:16:21.736Z,0.60
2018-02-25T19:18:49.344Z,0.70
2018-02-25T19:21:16.986Z,0.70
2018-02-25T19:23:44.610Z,0.70
2018-02-25T19:26:12.580Z,0.60
2018-02-25T19:28:40.543Z,0.60
2018-02-25T19:31:08.953Z,0.70
2018-02-25T19:33:36.605Z,0.60
2018-02-25T19:36:10.215Z,0.60
2018-02-25T19:38:43.438Z,0.60
2018-02-25T19:41:17.122Z,0.50
2018-02-25T19:43:45.336Z,0.30
2018-02-25T19:46:13.709Z,0.30
2018-02-25T19:48:41.869Z,0.30
2018-02-25T19:51:10.127Z,0.30
2018-02-25T19:53:44.196Z,0.30
2018-02-25T19:56:12.269Z,0.20
2018-02-25T19:58:40.107Z,0.10
2018-02-25T20:01:07.764Z,0.10
2018-02-25T20:03:35.625Z,0.10
2018-02-25T20:06:03.559Z,-0.20
2018-02-25T20:08:31.411Z,0.00
2018-02-25T20:11:00.800Z,-0.20
2018-02-25T20:13:29.464Z,0.00
2018-02-25T20:15:58.003Z,0.00
2018-02-25T20:18:25.724Z,0.10
2018-02-25T20:20:53.344Z,0.20
2018-02-25T20:23:21.202Z,0.30
2018-02-25T20:25:48.808Z,0.20
2018-02-25T20:28:16.394Z,0.20
2018-02-25T20:30:44.840Z,0.00
2018-02-25T20:33:12.831Z,0.00
2018-02-25T20:35:40.528Z,0.00
2018-02-25T20:38:08.485Z,0.10
2018-02-25T20:40:36.124Z,0.10
2018-02-25T20:43:03.742Z,0.10
2018-02-25T20:45:31.438Z,0.00
2018-02-25T20:47:59.884Z,-0.10
2018-02-25T20:50:27.925Z,-0.10
2018-02-25T20:52:56.306Z,0.00
2018-02-25T20:55:26.508Z,-0.10
2018-02-25T20:57:54.488Z,-0.10
2018-02-25T21:00:22.216Z,-0.20
2018-02-25T21:02:50.636Z,-0.20
2018-02-25T21:05:18.237Z,-0.20
2018-02-25T21:07:46.295Z,-0.30
2018-02-25T21:10:14.713Z,0.80
2018-02-25T21:12:42.892Z,-0.50
2018-02-25T21:15:10.695Z,-0.40
2018-02-25T21:17:39.864Z,-0.30
2018-02-25T21:20:08.386Z,-0.30
2018-02-25T21:22:37.156Z,-0.30
2018-02-25T21:25:04.818Z,-0.50
2018-02-25T21:27:32.426Z,-0.40
2018-02-25T21:30:00.881Z,-0.40
2018-02-25T21:32:29.034Z,-0.50
2018-02-25T21:34:57.475Z,-0.50
2018-02-25T21:37:25.450Z,-0.50
2018-02-25T21:39:54.468Z,-0.40
2018-02-25T21:42:22.100Z,-0.40
2018-02-25T21:44:50.494Z,-0.50
2018-02-25T21:47:18.618Z,-0.40
2018-02-25T21:49:46.973Z,-0.40
2018-02-25T21:52:15.380Z,-1.60
2018-02-25T21:54:49.610Z,-0.60
2018-02-25T21:57:23.180Z,-0.60
2018-02-25T21:59:57.267Z,-0.50
2018-02-25T22:02:31.401Z,-0.60
2018-02-25T22:05:00.635Z,-0.80
2018-02-25T22:07:29.023Z,-0.90
2018-02-25T22:09:57.837Z,-0.80
2018-02-25T22:12:25.877Z,-0.80
2018-02-25T22:14:54.268Z,-1.00
2018-02-25T22:17:23.549Z,-1.20
2018-02-25T22:19:52.404Z,-1.10
2018-02-25T22:22:26.944Z,-1.30
2018-02-25T22:24:54.508Z,-1.30
2018-02-25T22:27:22.961Z,-1.30
2018-02-25T22:29:51.326Z,-1.20
2018-02-25T22:32:19.692Z,-1.50
2018-02-25T22:34:48.793Z,-1.60
2018-02-25T22:37:16.404Z,-1.50
2018-02-25T22:39:44.385Z,-1.40
2018-02-25T22:42:12.740Z,-1.30
2018-02-25T22:44:41.089Z,-1.30
2018-02-25T22:47:08.686Z,-1.30
2018-02-25T22:49:36.786Z,-1.30
2018-02-25T22:52:04.772Z,-1.20
2018-02-25T22:54:33.150Z,-1.30
2018-02-25T22:57:01.960Z,-1.40
2018-02-25T22:59:30.667Z,-1.30
2018-02-25T23:01:58.261Z,-1.30
2018-02-25T23:04:26.618Z,-1.50
2018-02-25T23:06:55.704Z,-1.70
2018-02-25T23:09:23.344Z,-1.60
2018-02-25T23:11:51.760Z,-1.80
2018-02-25T23:14:20.108Z,-1.90
2018-02-25T23:16:48.477Z,-1.70
2018-02-25T23:19:17.827Z,-1.80
2018-02-25T23:21:45.444Z,-1.90
2018-02-25T23:24:13.433Z,-2.00
2018-02-25T23:26:42.141Z,-1.90
2018-02-25T23:29:09.992Z,-1.80
2018-02-25T23:31:39.149Z,-1.80
2018-02-25T23:34:08.023Z,-1.90
2018-02-25T23:36:36.401Z,-1.90
2018-02-25T23:39:04.770Z,-1.80
2018-02-25T23:41:34.316Z,-1.80
2018-02-25T23:44:02.665Z,-1.80
2018-02-25T23:46:31.037Z,-3.30
2018-02-25T23:48:59.373Z,-2.10
2018-02-25T23:51:27.736Z,-2.10
2018-02-25T23:53:56.185Z,-1.90
2018-02-25T23:56:24.535Z,-1.80
2018-02-25T23:58:52.899Z,-2.00
